sensor_id;sensor_type;location;lat;lon;timestamp;temperature;humidity
18450;DHT22;9354;50.194;7.690;2023-09-19T00:00:17;17.30;99.90
18450;DHT22;9354;50.194;7.690;2023-09-19T00:02:51;17.30;99.90
18450;DHT22;9354;50.194;7.690;2023-09-19T00:05:19;17.30;99.90
18450;DHT22;9354;50.194;7.690;2023-09-19T00:07:50;17.30;99.90
18450;DHT22;9354;50.194;7.690;2023-09-19T00:10:20;17.30;99.90
18450;DHT22;9354;50.194;7.690;2023-09-19T00:12:50;17.30;99.90
18450;DHT22;9354;50.194;7.690;2023-09-19T00:15:19;17.30;99.90
18450;DHT22;9354;50.194;7.690;2023-09-19T00:17:47;17.30;99.90
18450;DHT22;9354;50.194;7.690;2023-09-19T00:20:14;17.20;99.90
18450;DHT22;9354;50.194;7.690;2023-09-19T00:22:43;17.20;99.90
18450;DHT22;9354;50.194;7.690;2023-09-19T00:25:11;17.20;99.90
18450;DHT22;9354;50.194;7.690;2023-09-19T00:27:41;17.20;99.90
18450;DHT22;9354;50.194;7.690;2023-09-19T00:30:12;17.10;99.90
18450;DHT22;9354;50.194;7.690;2023-09-19T00:32:42;17.10;99.90
18450;DHT22;9354;50.194;7.690;2023-09-19T00:35:10;17.10;99.90
18450;DHT22;9354;50.194;7.690;2023-09-19T00:37:38;17.10;99.90
18450;DHT22;9354;50.194;7.690;2023-09-19T00:40:07;17.10;99.90
18450;DHT22;9354;50.194;7.690;2023-09-19T00:42:38;17.10;99.90
18450;DHT22;9354;50.194;7.690;2023-09-19T00:45:07;17.00;99.90
18450;DHT22;9354;50.194;7.690;2023-09-19T00:47:39;17.00;99.90
18450;DHT22;9354;50.194;7.690;2023-09-19T00:50:08;17.00;99.90
18450;DHT22;9354;50.194;7.690;2023-09-19T00:52:37;17.00;99.90
18450;DHT22;9354;50.194;7.690;2023-09-19T00:55:07;17.00;99.90
18450;DHT22;9354;50.194;7.690;2023-09-19T00:57:35;17.00;99.90
18450;DHT22;9354;50.194;7.690;2023-09-19T01:00:05;17.00;99.90
18450;DHT22;9354;50.194;7.690;2023-09-19T01:02:34;17.00;99.90
18450;DHT22;9354;50.194;7.690;2023-09-19T01:05:05;16.90;99.90
18450;DHT22;9354;50.194;7.690;2023-09-19T01:07:33;16.90;99.90
18450;DHT22;9354;50.194;7.690;2023-09-19T01:10:02;16.90;99.90
18450;DHT22;9354;50.194;7.690;2023-09-19T01:12:38;16.80;99.90
18450;DHT22;9354;50.194;7.690;2023-09-19T01:15:13;16.80;99.90
18450;DHT22;9354;50.194;7.690;2023-09-19T01:17:45;16.80;99.90
18450;DHT22;9354;50.194;7.690;2023-09-19T01:20:24;16.80;99.90
18450;DHT22;9354;50.194;7.690;2023-09-19T01:23:03;16.70;99.90
18450;DHT22;9354;50.194;7.690;2023-09-19T01:28:34;16.70;99.90
18450;DHT22;9354;50.194;7.690;2023-09-19T01:31:10;16.60;99.90
18450;DHT22;9354;50.194;7.690;2023-09-19T01:33:54;16.60;99.90
18450;DHT22;9354;50.194;7.690;2023-09-19T01:36:23;16.60;99.90
18450;DHT22;9354;50.194;7.690;2023-09-19T01:38:51;16.50;99.90
18450;DHT22;9354;50.194;7.690;2023-09-19T01:41:26;16.50;99.90
18450;DHT22;9354;50.194;7.690;2023-09-19T01:44:22;16.50;99.90
18450;DHT22;9354;50.194;7.690;2023-09-19T01:46:52;16.40;99.90
18450;DHT22;9354;50.194;7.690;2023-09-19T01:49:27;16.40;99.90
18450;DHT22;9354;50.194;7.690;2023-09-19T01:52:05;16.40;99.90
18450;DHT22;9354;50.194;7.690;2023-09-19T01:54:46;16.40;99.90
18450;DHT22;9354;50.194;7.690;2023-09-19T01:57:22;16.30;99.90
18450;DHT22;9354;50.194;7.690;2023-09-19T01:59:59;16.30;99.90
18450;DHT22;9354;50.194;7.690;2023-09-19T02:02:35;16.30;99.90
18450;DHT22;9354;50.194;7.690;2023-09-19T02:05:04;16.30;99.90
18450;DHT22;9354;50.194;7.690;2023-09-19T02:07:32;16.30;99.90
18450;DHT22;9354;50.194;7.690;2023-09-19T02:09:59;16.30;99.90
18450;DHT22;9354;50.194;7.690;2023-09-19T02:12:27;16.30;99.90
18450;DHT22;9354;50.194;7.690;2023-09-19T02:14:54;16.30;99.90
18450;DHT22;9354;50.194;7.690;2023-09-19T02:17:23;16.30;99.90
18450;DHT22;9354;50.194;7.690;2023-09-19T02:19:53;16.20;99.90
18450;DHT22;9354;50.194;7.690;2023-09-19T02:22:21;16.20;99.90
18450;DHT22;9354;50.194;7.690;2023-09-19T02:24:48;16.10;99.90
18450;DHT22;9354;50.194;7.690;2023-09-19T02:27:17;16.00;99.90
18450;DHT22;9354;50.194;7.690;2023-09-19T02:29:45;16.00;99.90
18450;DHT22;9354;50.194;7.690;2023-09-19T02:32:12;16.00;99.90
18450;DHT22;9354;50.194;7.690;2023-09-19T02:34:40;15.90;99.90
18450;DHT22;9354;50.194;7.690;2023-09-19T02:37:09;15.90;99.90
18450;DHT22;9354;50.194;7.690;2023-09-19T02:39:39;15.90;99.90
18450;DHT22;9354;50.194;7.690;2023-09-19T02:42:06;15.80;99.90
18450;DHT22;9354;50.194;7.690;2023-09-19T02:44:34;15.80;99.90
18450;DHT22;9354;50.194;7.690;2023-09-19T02:47:01;15.80;99.90
18450;DHT22;9354;50.194;7.690;2023-09-19T02:49:29;15.80;99.90
18450;DHT22;9354;50.194;7.690;2023-09-19T02:51:57;15.70;99.90
18450;DHT22;9354;50.194;7.690;2023-09-19T02:54:27;15.70;99.90
18450;DHT22;9354;50.194;7.690;2023-09-19T02:56:54;15.70;99.90
18450;DHT22;9354;50.194;7.690;2023-09-19T02:59:22;15.70;99.90
18450;DHT22;9354;50.194;7.690;2023-09-19T03:01:51;15.70;99.90
18450;DHT22;9354;50.194;7.690;2023-09-19T03:04:20;15.70;99.90
18450;DHT22;9354;50.194;7.690;2023-09-19T03:06:47;15.80;99.90
18450;DHT22;9354;50.194;7.690;2023-09-19T03:09:17;15.80;99.90
18450;DHT22;9354;50.194;7.690;2023-09-19T03:11:46;15.80;99.90
18450;DHT22;9354;50.194;7.690;2023-09-19T03:14:14;15.80;99.90
18450;DHT22;9354;50.194;7.690;2023-09-19T03:16:42;15.80;99.90
18450;DHT22;9354;50.194;7.690;2023-09-19T03:19:10;15.80;99.90
18450;DHT22;9354;50.194;7.690;2023-09-19T03:21:38;15.80;99.90
18450;DHT22;9354;50.194;7.690;2023-09-19T03:24:06;15.90;99.90
18450;DHT22;9354;50.194;7.690;2023-09-19T03:26:33;15.90;99.90
18450;DHT22;9354;50.194;7.690;2023-09-19T03:29:05;15.90;99.90
18450;DHT22;9354;50.194;7.690;2023-09-19T03:31:34;16.00;99.90
18450;DHT22;9354;50.194;7.690;2023-09-19T03:34:02;16.00;99.90
18450;DHT22;9354;50.194;7.690;2023-09-19T03:36:31;16.00;99.90
18450;DHT22;9354;50.194;7.690;2023-09-19T03:39:01;16.00;99.90
18450;DHT22;9354;50.194;7.690;2023-09-19T03:41:31;16.00;99.90
18450;DHT22;9354;50.194;7.690;2023-09-19T03:43:59;16.00;99.90
18450;DHT22;9354;50.194;7.690;2023-09-19T03:46:28;16.10;99.90
18450;DHT22;9354;50.194;7.690;2023-09-19T03:48:56;16.10;99.90
18450;DHT22;9354;50.194;7.690;2023-09-19T03:51:23;16.10;99.90
18450;DHT22;9354;50.194;7.690;2023-09-19T03:53:51;16.10;99.90
18450;DHT22;9354;50.194;7.690;2023-09-19T03:56:18;16.10;99.90
18450;DHT22;9354;50.194;7.690;2023-09-19T03:58:45;16.10;99.90
18450;DHT22;9354;50.194;7.690;2023-09-19T04:01:13;16.10;99.90
18450;DHT22;9354;50.194;7.690;2023-09-19T04:03:41;16.10;99.90
18450;DHT22;9354;50.194;7.690;2023-09-19T04:06:16;16.10;99.90
18450;DHT22;9354;50.194;7.690;2023-09-19T04:08:44;16.10;99.90
18450;DHT22;9354;50.194;7.690;2023-09-19T04:11:12;16.10;99.90
18450;DHT22;9354;50.194;7.690;2023-09-19T04:13:40;16.00;99.90
18450;DHT22;9354;50.194;7.690;2023-09-19T04:16:07;16.00;99.90
18450;DHT22;9354;50.194;7.690;2023-09-19T04:18:35;16.00;99.90
18450;DHT22;9354;50.194;7.690;2023-09-19T04:21:05;16.00;99.90
18450;DHT22;9354;50.194;7.690;2023-09-19T04:23:33;15.90;99.90
18450;DHT22;9354;50.194;7.690;2023-09-19T04:26:00;15.90;99.90
18450;DHT22;9354;50.194;7.690;2023-09-19T04:28:29;15.90;99.90
18450;DHT22;9354;50.194;7.690;2023-09-19T04:30:57;15.80;99.90
18450;DHT22;9354;50.194;7.690;2023-09-19T04:33:25;15.80;99.90
18450;DHT22;9354;50.194;7.690;2023-09-19T04:35:53;15.80;99.90
18450;DHT22;9354;50.194;7.690;2023-09-19T04:38:22;15.80;99.90
18450;DHT22;9354;50.194;7.690;2023-09-19T04:40:50;15.80;99.90
18450;DHT22;9354;50.194;7.690;2023-09-19T04:43:24;15.80;99.90
18450;DHT22;9354;50.194;7.690;2023-09-19T04:45:51;15.80;99.90
18450;DHT22;9354;50.194;7.690;2023-09-19T04:48:22;15.80;99.90
18450;DHT22;9354;50.194;7.690;2023-09-19T04:50:51;15.80;99.90
18450;DHT22;9354;50.194;7.690;2023-09-19T04:53:18;15.80;99.90
18450;DHT22;9354;50.194;7.690;2023-09-19T04:55:51;15.80;99.90
18450;DHT22;9354;50.194;7.690;2023-09-19T04:58:21;15.80;99.90
18450;DHT22;9354;50.194;7.690;2023-09-19T05:00:49;15.80;99.90
18450;DHT22;9354;50.194;7.690;2023-09-19T05:03:17;15.80;99.90
18450;DHT22;9354;50.194;7.690;2023-09-19T05:05:47;15.80;99.90
18450;DHT22;9354;50.194;7.690;2023-09-19T05:08:14;15.80;99.90
18450;DHT22;9354;50.194;7.690;2023-09-19T05:10:41;15.90;99.90
18450;DHT22;9354;50.194;7.690;2023-09-19T05:13:10;15.90;99.90
18450;DHT22;9354;50.194;7.690;2023-09-19T05:15:38;15.90;99.90
18450;DHT22;9354;50.194;7.690;2023-09-19T05:18:05;15.90;99.90
18450;DHT22;9354;50.194;7.690;2023-09-19T05:20:33;15.90;99.90
18450;DHT22;9354;50.194;7.690;2023-09-19T05:23:02;15.90;99.90
18450;DHT22;9354;50.194;7.690;2023-09-19T05:25:34;16.00;99.90
18450;DHT22;9354;50.194;7.690;2023-09-19T05:28:04;16.00;99.90
18450;DHT22;9354;50.194;7.690;2023-09-19T05:30:33;15.90;99.90
18450;DHT22;9354;50.194;7.690;2023-09-19T05:33:02;16.00;99.90
18450;DHT22;9354;50.194;7.690;2023-09-19T05:35:30;16.00;99.90
18450;DHT22;9354;50.194;7.690;2023-09-19T05:37:58;15.90;99.90
18450;DHT22;9354;50.194;7.690;2023-09-19T05:40:26;15.90;99.90
18450;DHT22;9354;50.194;7.690;2023-09-19T05:42:53;15.90;99.90
18450;DHT22;9354;50.194;7.690;2023-09-19T05:45:21;15.90;99.90
18450;DHT22;9354;50.194;7.690;2023-09-19T05:47:51;15.90;99.90
18450;DHT22;9354;50.194;7.690;2023-09-19T05:50:21;15.90;99.90
18450;DHT22;9354;50.194;7.690;2023-09-19T05:52:53;15.90;99.90
18450;DHT22;9354;50.194;7.690;2023-09-19T05:55:22;15.90;99.90
18450;DHT22;9354;50.194;7.690;2023-09-19T05:57:51;15.80;99.90
18450;DHT22;9354;50.194;7.690;2023-09-19T06:00:19;15.80;99.90
18450;DHT22;9354;50.194;7.690;2023-09-19T06:02:51;15.80;99.90
18450;DHT22;9354;50.194;7.690;2023-09-19T06:05:19;15.80;99.90
18450;DHT22;9354;50.194;7.690;2023-09-19T06:07:47;15.80;99.90
18450;DHT22;9354;50.194;7.690;2023-09-19T06:10:14;15.80;99.90
18450;DHT22;9354;50.194;7.690;2023-09-19T06:12:43;15.80;99.90
18450;DHT22;9354;50.194;7.690;2023-09-19T06:15:11;15.80;99.90
18450;DHT22;9354;50.194;7.690;2023-09-19T06:17:42;15.80;99.90
18450;DHT22;9354;50.194;7.690;2023-09-19T06:20:11;15.80;99.90
18450;DHT22;9354;50.194;7.690;2023-09-19T06:22:41;15.80;99.90
18450;DHT22;9354;50.194;7.690;2023-09-19T06:25:09;15.80;99.90
18450;DHT22;9354;50.194;7.690;2023-09-19T06:27:38;15.80;99.90
18450;DHT22;9354;50.194;7.690;2023-09-19T06:30:09;15.80;99.90
18450;DHT22;9354;50.194;7.690;2023-09-19T06:32:37;15.80;99.90
18450;DHT22;9354;50.194;7.690;2023-09-19T06:35:05;15.80;99.90
18450;DHT22;9354;50.194;7.690;2023-09-19T06:37:36;15.80;99.90
18450;DHT22;9354;50.194;7.690;2023-09-19T06:40:07;15.80;99.90
18450;DHT22;9354;50.194;7.690;2023-09-19T06:42:40;15.80;99.90
18450;DHT22;9354;50.194;7.690;2023-09-19T06:45:08;15.80;99.90
18450;DHT22;9354;50.194;7.690;2023-09-19T06:47:37;15.90;99.90
18450;DHT22;9354;50.194;7.690;2023-09-19T06:50:05;15.90;99.90
18450;DHT22;9354;50.194;7.690;2023-09-19T06:52:40;16.00;99.90
18450;DHT22;9354;50.194;7.690;2023-09-19T06:55:08;16.00;99.90
18450;DHT22;9354;50.194;7.690;2023-09-19T06:57:37;16.00;99.90
18450;DHT22;9354;50.194;7.690;2023-09-19T07:00:07;16.00;99.90
18450;DHT22;9354;50.194;7.690;2023-09-19T07:02:41;16.00;99.90
18450;DHT22;9354;50.194;7.690;2023-09-19T07:05:08;16.00;99.90
18450;DHT22;9354;50.194;7.690;2023-09-19T07:07:36;16.00;99.90
18450;DHT22;9354;50.194;7.690;2023-09-19T07:10:06;16.00;99.90
18450;DHT22;9354;50.194;7.690;2023-09-19T07:12:34;16.10;99.90
18450;DHT22;9354;50.194;7.690;2023-09-19T07:15:01;16.10;99.90
18450;DHT22;9354;50.194;7.690;2023-09-19T07:17:29;16.10;99.90
18450;DHT22;9354;50.194;7.690;2023-09-19T07:19:56;16.00;99.90
18450;DHT22;9354;50.194;7.690;2023-09-19T07:22:26;15.90;99.90
18450;DHT22;9354;50.194;7.690;2023-09-19T07:24:53;15.90;99.90
18450;DHT22;9354;50.194;7.690;2023-09-19T07:27:22;15.80;99.90
18450;DHT22;9354;50.194;7.690;2023-09-19T07:29:49;15.90;99.90
18450;DHT22;9354;50.194;7.690;2023-09-19T07:32:17;15.90;99.90
18450;DHT22;9354;50.194;7.690;2023-09-19T07:34:44;15.90;99.90
18450;DHT22;9354;50.194;7.690;2023-09-19T07:37:11;15.90;99.90
18450;DHT22;9354;50.194;7.690;2023-09-19T07:39:41;15.90;99.90
18450;DHT22;9354;50.194;7.690;2023-09-19T07:42:09;15.90;99.90
18450;DHT22;9354;50.194;7.690;2023-09-19T07:44:39;16.00;99.90
18450;DHT22;9354;50.194;7.690;2023-09-19T07:47:06;16.00;99.90
18450;DHT22;9354;50.194;7.690;2023-09-19T07:49:33;16.00;99.90
18450;DHT22;9354;50.194;7.690;2023-09-19T07:52:01;16.00;99.90
18450;DHT22;9354;50.194;7.690;2023-09-19T07:54:28;16.10;99.90
18450;DHT22;9354;50.194;7.690;2023-09-19T07:57:01;16.20;99.90
18450;DHT22;9354;50.194;7.690;2023-09-19T07:59:28;16.30;99.90
18450;DHT22;9354;50.194;7.690;2023-09-19T08:01:57;16.40;99.90
18450;DHT22;9354;50.194;7.690;2023-09-19T08:04:25;16.60;99.90
18450;DHT22;9354;50.194;7.690;2023-09-19T08:06:52;16.70;99.90
18450;DHT22;9354;50.194;7.690;2023-09-19T08:09:22;16.70;99.90
18450;DHT22;9354;50.194;7.690;2023-09-19T08:11:49;16.70;99.90
18450;DHT22;9354;50.194;7.690;2023-09-19T08:14:17;16.70;99.90
18450;DHT22;9354;50.194;7.690;2023-09-19T08:16:44;16.80;99.90
18450;DHT22;9354;50.194;7.690;2023-09-19T08:19:13;16.80;99.90
18450;DHT22;9354;50.194;7.690;2023-09-19T08:21:40;16.80;99.90
18450;DHT22;9354;50.194;7.690;2023-09-19T08:24:11;16.80;99.90
18450;DHT22;9354;50.194;7.690;2023-09-19T08:26:40;17.00;99.90
18450;DHT22;9354;50.194;7.690;2023-09-19T08:29:08;17.00;99.90
18450;DHT22;9354;50.194;7.690;2023-09-19T08:31:38;17.10;99.90
18450;DHT22;9354;50.194;7.690;2023-09-19T08:34:05;17.20;99.90
18450;DHT22;9354;50.194;7.690;2023-09-19T08:36:34;17.20;99.90
18450;DHT22;9354;50.194;7.690;2023-09-19T08:39:03;17.20;99.90
18450;DHT22;9354;50.194;7.690;2023-09-19T08:41:30;17.20;99.90
18450;DHT22;9354;50.194;7.690;2023-09-19T08:43:58;17.20;99.90
18450;DHT22;9354;50.194;7.690;2023-09-19T08:46:30;17.20;99.90
18450;DHT22;9354;50.194;7.690;2023-09-19T08:49:04;17.30;99.90
18450;DHT22;9354;50.194;7.690;2023-09-19T08:51:41;17.40;99.90
18450;DHT22;9354;50.194;7.690;2023-09-19T08:54:17;17.50;99.90
18450;DHT22;9354;50.194;7.690;2023-09-19T08:56:50;17.50;99.90
18450;DHT22;9354;50.194;7.690;2023-09-19T08:59:21;17.40;99.90
18450;DHT22;9354;50.194;7.690;2023-09-19T09:01:52;17.30;99.90
18450;DHT22;9354;50.194;7.690;2023-09-19T09:04:20;17.30;99.90
18450;DHT22;9354;50.194;7.690;2023-09-19T09:06:50;17.30;99.90
18450;DHT22;9354;50.194;7.690;2023-09-19T09:09:20;17.40;99.90
18450;DHT22;9354;50.194;7.690;2023-09-19T09:11:48;17.50;99.90
18450;DHT22;9354;50.194;7.690;2023-09-19T09:14:19;17.50;99.90
18450;DHT22;9354;50.194;7.690;2023-09-19T09:16:48;17.50;99.90
18450;DHT22;9354;50.194;7.690;2023-09-19T09:19:15;17.50;99.90
18450;DHT22;9354;50.194;7.690;2023-09-19T09:21:51;17.40;99.90
18450;DHT22;9354;50.194;7.690;2023-09-19T09:24:28;17.50;99.90
18450;DHT22;9354;50.194;7.690;2023-09-19T09:26:57;17.50;99.90
18450;DHT22;9354;50.194;7.690;2023-09-19T09:29:41;17.50;99.90
18450;DHT22;9354;50.194;7.690;2023-09-19T09:32:22;17.60;99.90
18450;DHT22;9354;50.194;7.690;2023-09-19T09:34:52;17.50;99.90
18450;DHT22;9354;50.194;7.690;2023-09-19T09:37:22;17.50;99.90
18450;DHT22;9354;50.194;7.690;2023-09-19T09:39:52;17.50;99.90
18450;DHT22;9354;50.194;7.690;2023-09-19T09:42:32;17.60;99.90
18450;DHT22;9354;50.194;7.690;2023-09-19T09:45:22;17.70;99.90
18450;DHT22;9354;50.194;7.690;2023-09-19T09:47:55;17.80;99.90
18450;DHT22;9354;50.194;7.690;2023-09-19T09:50:29;18.00;99.90
18450;DHT22;9354;50.194;7.690;2023-09-19T09:53:20;18.10;99.90
18450;DHT22;9354;50.194;7.690;2023-09-19T09:55:57;18.20;99.90
18450;DHT22;9354;50.194;7.690;2023-09-19T09:58:25;18.20;99.90
18450;DHT22;9354;50.194;7.690;2023-09-19T10:00:55;18.20;99.90
18450;DHT22;9354;50.194;7.690;2023-09-19T10:03:34;18.10;99.90
18450;DHT22;9354;50.194;7.690;2023-09-19T10:06:10;18.00;99.90
18450;DHT22;9354;50.194;7.690;2023-09-19T10:09:01;17.90;99.90
18450;DHT22;9354;50.194;7.690;2023-09-19T10:11:44;17.80;99.90
18450;DHT22;9354;50.194;7.690;2023-09-19T10:14:12;17.80;99.90
18450;DHT22;9354;50.194;7.690;2023-09-19T10:16:45;17.70;99.90
18450;DHT22;9354;50.194;7.690;2023-09-19T10:19:16;17.80;99.90
18450;DHT22;9354;50.194;7.690;2023-09-19T10:21:47;17.90;99.90
18450;DHT22;9354;50.194;7.690;2023-09-19T10:24:17;17.90;99.90
18450;DHT22;9354;50.194;7.690;2023-09-19T10:26:45;18.00;99.90
18450;DHT22;9354;50.194;7.690;2023-09-19T10:29:18;18.10;99.90
18450;DHT22;9354;50.194;7.690;2023-09-19T10:31:47;18.00;99.90
18450;DHT22;9354;50.194;7.690;2023-09-19T10:34:17;18.10;99.90
18450;DHT22;9354;50.194;7.690;2023-09-19T10:36:45;18.10;99.90
18450;DHT22;9354;50.194;7.690;2023-09-19T10:39:16;18.10;99.90
18450;DHT22;9354;50.194;7.690;2023-09-19T10:41:50;18.20;99.90
18450;DHT22;9354;50.194;7.690;2023-09-19T10:44:23;18.40;99.90
18450;DHT22;9354;50.194;7.690;2023-09-19T10:46:51;18.40;99.90
18450;DHT22;9354;50.194;7.690;2023-09-19T10:49:20;18.50;99.90
18450;DHT22;9354;50.194;7.690;2023-09-19T10:51:52;18.60;99.90
18450;DHT22;9354;50.194;7.690;2023-09-19T10:54:26;18.70;99.90
18450;DHT22;9354;50.194;7.690;2023-09-19T10:56:54;18.60;99.90
18450;DHT22;9354;50.194;7.690;2023-09-19T10:59:25;18.60;99.90
18450;DHT22;9354;50.194;7.690;2023-09-19T11:01:57;18.60;99.90
18450;DHT22;9354;50.194;7.690;2023-09-19T11:04:28;18.60;99.90
18450;DHT22;9354;50.194;7.690;2023-09-19T11:07:03;18.60;99.90
18450;DHT22;9354;50.194;7.690;2023-09-19T11:09:46;18.70;99.90
18450;DHT22;9354;50.194;7.690;2023-09-19T11:21:52;19.20;99.90
18450;DHT22;9354;50.194;7.690;2023-09-19T11:24:31;19.30;99.90
18450;DHT22;9354;50.194;7.690;2023-09-19T11:27:18;19.40;99.90
18450;DHT22;9354;50.194;7.690;2023-09-19T11:29:46;19.50;99.90
18450;DHT22;9354;50.194;7.690;2023-09-19T11:32:15;19.70;99.90
18450;DHT22;9354;50.194;7.690;2023-09-19T11:34:49;19.80;99.90
18450;DHT22;9354;50.194;7.690;2023-09-19T11:40:37;20.30;99.90
18450;DHT22;9354;50.194;7.690;2023-09-19T11:43:31;20.30;99.90
18450;DHT22;9354;50.194;7.690;2023-09-19T11:46:09;20.30;99.90
18450;DHT22;9354;50.194;7.690;2023-09-19T11:48:39;20.40;99.90
18450;DHT22;9354;50.194;7.690;2023-09-19T11:51:27;20.30;99.90
18450;DHT22;9354;50.194;7.690;2023-09-19T11:53:56;20.20;99.90
18450;DHT22;9354;50.194;7.690;2023-09-19T11:56:25;20.00;99.90
18450;DHT22;9354;50.194;7.690;2023-09-19T11:58:56;20.00;99.90
18450;DHT22;9354;50.194;7.690;2023-09-19T12:01:26;19.90;99.90
18450;DHT22;9354;50.194;7.690;2023-09-19T12:03:56;19.70;99.90
18450;DHT22;9354;50.194;7.690;2023-09-19T12:06:24;19.60;99.90
18450;DHT22;9354;50.194;7.690;2023-09-19T12:08:53;19.50;99.90
18450;DHT22;9354;50.194;7.690;2023-09-19T12:11:22;19.40;99.90
18450;DHT22;9354;50.194;7.690;2023-09-19T12:13:50;19.30;99.90
18450;DHT22;9354;50.194;7.690;2023-09-19T12:16:21;19.30;99.90
18450;DHT22;9354;50.194;7.690;2023-09-19T12:18:49;19.30;99.90
18450;DHT22;9354;50.194;7.690;2023-09-19T12:21:24;19.30;99.90
18450;DHT22;9354;50.194;7.690;2023-09-19T12:24:11;19.40;99.90
18450;DHT22;9354;50.194;7.690;2023-09-19T12:26:40;19.40;99.90
18450;DHT22;9354;50.194;7.690;2023-09-19T12:29:16;19.50;99.90
18450;DHT22;9354;50.194;7.690;2023-09-19T12:31:52;19.60;99.90
18450;DHT22;9354;50.194;7.690;2023-09-19T12:34:24;19.70;99.90
18450;DHT22;9354;50.194;7.690;2023-09-19T12:37:09;19.80;99.90
18450;DHT22;9354;50.194;7.690;2023-09-19T12:39:43;19.80;99.90
18450;DHT22;9354;50.194;7.690;2023-09-19T12:42:15;19.80;99.90
18450;DHT22;9354;50.194;7.690;2023-09-19T12:44:44;19.90;99.90
18450;DHT22;9354;50.194;7.690;2023-09-19T12:47:16;19.90;99.90
18450;DHT22;9354;50.194;7.690;2023-09-19T12:50:11;20.00;99.90
18450;DHT22;9354;50.194;7.690;2023-09-19T12:52:44;20.20;99.90
18450;DHT22;9354;50.194;7.690;2023-09-19T12:55:24;20.40;99.90
18450;DHT22;9354;50.194;7.690;2023-09-19T12:58:07;20.60;99.90
18450;DHT22;9354;50.194;7.690;2023-09-19T13:00:36;20.70;99.90
18450;DHT22;9354;50.194;7.690;2023-09-19T13:03:27;20.90;99.90
18450;DHT22;9354;50.194;7.690;2023-09-19T13:05:58;21.00;99.90
18450;DHT22;9354;50.194;7.690;2023-09-19T13:08:28;21.00;99.90
18450;DHT22;9354;50.194;7.690;2023-09-19T13:11:11;21.10;99.90
18450;DHT22;9354;50.194;7.690;2023-09-19T13:13:41;21.20;99.90
18450;DHT22;9354;50.194;7.690;2023-09-19T13:16:10;21.30;99.90
18450;DHT22;9354;50.194;7.690;2023-09-19T13:18:46;21.40;99.90
18450;DHT22;9354;50.194;7.690;2023-09-19T13:21:20;21.50;99.90
18450;DHT22;9354;50.194;7.690;2023-09-19T13:23:55;21.60;99.90
18450;DHT22;9354;50.194;7.690;2023-09-19T13:26:25;21.70;99.90
18450;DHT22;9354;50.194;7.690;2023-09-19T13:28:54;21.70;99.90
18450;DHT22;9354;50.194;7.690;2023-09-19T13:31:21;21.70;99.90
18450;DHT22;9354;50.194;7.690;2023-09-19T13:33:51;21.60;99.90
18450;DHT22;9354;50.194;7.690;2023-09-19T13:36:18;21.60;99.90
18450;DHT22;9354;50.194;7.690;2023-09-19T13:38:45;21.50;99.90
18450;DHT22;9354;50.194;7.690;2023-09-19T13:41:15;21.60;99.90
18450;DHT22;9354;50.194;7.690;2023-09-19T13:43:42;21.70;99.90
18450;DHT22;9354;50.194;7.690;2023-09-19T13:46:15;21.70;99.90
18450;DHT22;9354;50.194;7.690;2023-09-19T13:48:44;21.70;99.90
18450;DHT22;9354;50.194;7.690;2023-09-19T13:51:12;21.60;99.90
18450;DHT22;9354;50.194;7.690;2023-09-19T13:53:40;21.50;99.90
18450;DHT22;9354;50.194;7.690;2023-09-19T13:56:08;21.40;99.90
18450;DHT22;9354;50.194;7.690;2023-09-19T13:58:35;21.30;99.90
18450;DHT22;9354;50.194;7.690;2023-09-19T14:01:03;21.30;99.90
18450;DHT22;9354;50.194;7.690;2023-09-19T14:03:30;21.20;99.90
18450;DHT22;9354;50.194;7.690;2023-09-19T14:05:57;21.30;99.90
18450;DHT22;9354;50.194;7.690;2023-09-19T14:08:26;21.40;99.90
18450;DHT22;9354;50.194;7.690;2023-09-19T14:10:53;21.50;99.90
18450;DHT22;9354;50.194;7.690;2023-09-19T14:13:21;21.50;99.90
18450;DHT22;9354;50.194;7.690;2023-09-19T14:15:48;21.50;99.90
18450;DHT22;9354;50.194;7.690;2023-09-19T14:18:16;21.60;99.90
18450;DHT22;9354;50.194;7.690;2023-09-19T14:20:44;21.70;99.90
18450;DHT22;9354;50.194;7.690;2023-09-19T14:23:11;21.60;99.90
18450;DHT22;9354;50.194;7.690;2023-09-19T14:25:40;21.70;99.90
18450;DHT22;9354;50.194;7.690;2023-09-19T14:28:08;21.60;99.90
18450;DHT22;9354;50.194;7.690;2023-09-19T14:30:35;21.50;99.90
18450;DHT22;9354;50.194;7.690;2023-09-19T14:33:04;21.60;99.90
18450;DHT22;9354;50.194;7.690;2023-09-19T14:35:32;21.70;99.90
18450;DHT22;9354;50.194;7.690;2023-09-19T14:37:59;21.70;99.90
18450;DHT22;9354;50.194;7.690;2023-09-19T14:40:27;21.80;99.90
18450;DHT22;9354;50.194;7.690;2023-09-19T14:42:55;21.90;99.90
18450;DHT22;9354;50.194;7.690;2023-09-19T14:45:23;21.90;99.90
18450;DHT22;9354;50.194;7.690;2023-09-19T14:47:51;21.90;99.90
18450;DHT22;9354;50.194;7.690;2023-09-19T14:50:21;21.90;99.90
18450;DHT22;9354;50.194;7.690;2023-09-19T14:52:48;21.90;99.90
18450;DHT22;9354;50.194;7.690;2023-09-19T14:55:17;21.80;99.90
18450;DHT22;9354;50.194;7.690;2023-09-19T14:57:49;21.80;99.90
18450;DHT22;9354;50.194;7.690;2023-09-19T15:00:18;21.80;99.90
18450;DHT22;9354;50.194;7.690;2023-09-19T15:02:47;21.80;99.90
18450;DHT22;9354;50.194;7.690;2023-09-19T15:05:16;21.80;99.90
18450;DHT22;9354;50.194;7.690;2023-09-19T15:07:43;21.80;99.90
18450;DHT22;9354;50.194;7.690;2023-09-19T15:10:10;21.80;99.90
18450;DHT22;9354;50.194;7.690;2023-09-19T15:12:39;21.70;99.90
18450;DHT22;9354;50.194;7.690;2023-09-19T15:15:07;21.70;99.90
18450;DHT22;9354;50.194;7.690;2023-09-19T15:17:36;21.70;99.90
18450;DHT22;9354;50.194;7.690;2023-09-19T15:20:05;21.70;99.90
18450;DHT22;9354;50.194;7.690;2023-09-19T15:22:33;21.70;99.90
18450;DHT22;9354;50.194;7.690;2023-09-19T15:25:01;21.70;99.90
18450;DHT22;9354;50.194;7.690;2023-09-19T15:27:30;21.70;99.90
18450;DHT22;9354;50.194;7.690;2023-09-19T15:29:59;21.70;99.90
18450;DHT22;9354;50.194;7.690;2023-09-19T15:32:28;21.70;99.90
18450;DHT22;9354;50.194;7.690;2023-09-19T15:34:57;21.80;99.90
18450;DHT22;9354;50.194;7.690;2023-09-19T15:37:25;21.70;99.90
18450;DHT22;9354;50.194;7.690;2023-09-19T15:39:52;21.60;99.90
18450;DHT22;9354;50.194;7.690;2023-09-19T15:42:20;21.50;99.90
18450;DHT22;9354;50.194;7.690;2023-09-19T15:44:47;21.50;99.90
18450;DHT22;9354;50.194;7.690;2023-09-19T15:47:17;21.30;99.90
18450;DHT22;9354;50.194;7.690;2023-09-19T15:49:45;21.20;99.90
18450;DHT22;9354;50.194;7.690;2023-09-19T15:52:17;21.20;99.90
18450;DHT22;9354;50.194;7.690;2023-09-19T15:54:44;21.10;99.90
18450;DHT22;9354;50.194;7.690;2023-09-19T15:57:12;21.00;99.90
18450;DHT22;9354;50.194;7.690;2023-09-19T15:59:40;20.90;99.90
18450;DHT22;9354;50.194;7.690;2023-09-19T16:02:07;20.80;99.90
18450;DHT22;9354;50.194;7.690;2023-09-19T16:04:34;20.70;99.90
18450;DHT22;9354;50.194;7.690;2023-09-19T16:07:02;20.60;99.90
18450;DHT22;9354;50.194;7.690;2023-09-19T16:09:32;20.60;99.90
18450;DHT22;9354;50.194;7.690;2023-09-19T16:12:00;20.60;99.90
18450;DHT22;9354;50.194;7.690;2023-09-19T16:14:28;20.60;99.90
18450;DHT22;9354;50.194;7.690;2023-09-19T16:16:56;20.50;99.90
18450;DHT22;9354;50.194;7.690;2023-09-19T16:19:24;20.50;99.90